createdAt,value
2019-05-25T00:00:47.951Z,57.31
2019-05-25T00:01:47.940Z,57.42
2019-05-25T00:02:48.040Z,57.52
2019-05-25T00:03:47.933Z,57.62
2019-05-25T00:04:47.931Z,57.42
2019-05-25T00:05:47.892Z,57.82
2019-05-25T00:06:47.882Z,58.33
2019-05-25T00:07:47.864Z,57.82
2019-05-25T00:08:47.864Z,57.92
2019-05-25T00:09:48.664Z,58.45
2019-05-25T00:10:48.682Z,59.06
2019-05-25T00:11:47.856Z,59.97
2019-05-25T00:12:47.854Z,59.56
2019-05-25T00:13:47.864Z,60.48
2019-05-25T00:14:47.857Z,60.58
2019-05-25T00:15:47.826Z,61.19
2019-05-25T00:16:47.801Z,60.17
2019-05-25T00:17:47.838Z,59.77
2019-05-25T00:18:47.747Z,60.07
2019-05-25T00:19:47.734Z,59.36
2019-05-25T00:20:47.725Z,59.06
2019-05-25T00:21:47.821Z,58.56
2019-05-25T00:22:47.728Z,58.56
2019-05-25T00:23:47.703Z,58.25
2019-05-25T00:24:47.694Z,58.25
2019-05-25T00:25:47.663Z,58.45
2019-05-25T00:26:47.686Z,58.65
2019-05-25T00:27:47.655Z,58.36
2019-05-25T00:28:47.646Z,58.15
2019-05-25T00:29:47.635Z,58.15
2019-05-25T00:30:47.625Z,58.07
2019-05-25T00:31:47.627Z,58.38
2019-05-25T00:32:47.628Z,58.69
2019-05-25T00:33:47.632Z,58.18
2019-05-25T00:34:47.574Z,58.58
2019-05-25T00:35:47.559Z,58.48
2019-05-25T00:36:47.609Z,58.99
2019-05-25T00:37:47.542Z,59.19
2019-05-25T00:38:47.534Z,58.78
2019-05-25T00:39:47.505Z,58.58
2019-05-25T00:40:47.510Z,58.48
2019-05-25T00:41:47.524Z,58.58
2019-05-25T00:42:47.486Z,58.99
2019-05-25T00:43:47.589Z,58.99
2019-05-25T00:44:47.468Z,58.89
2019-05-25T00:45:47.447Z,58.18
2019-05-25T00:46:47.448Z,57.98
2019-05-25T00:47:47.442Z,58.07
2019-05-25T00:48:47.448Z,57.67
2019-05-25T00:49:47.426Z,57.87
2019-05-25T00:50:47.397Z,57.67
2019-05-25T00:51:48.174Z,57.67
2019-05-25T00:52:47.386Z,58.31
2019-05-25T00:53:47.436Z,58.20
2019-05-25T00:54:47.376Z,58.81
2019-05-25T00:55:47.370Z,59.63
2019-05-25T00:56:47.344Z,60.94
2019-05-25T00:57:47.317Z,61.24
2019-05-25T00:58:47.333Z,60.84
2019-05-25T00:59:47.307Z,60.84
2019-05-25T01:00:47.291Z,60.53
2019-05-25T01:01:47.276Z,60.26
2019-05-25T01:02:47.299Z,60.57
2019-05-25T01:03:47.278Z,59.75
2019-05-25T01:04:47.250Z,60.16
2019-05-25T01:05:47.228Z,60.77
2019-05-25T01:06:47.217Z,60.36
2019-05-25T01:07:47.215Z,59.14
2019-05-25T01:08:47.235Z,59.75
2019-05-25T01:09:47.188Z,59.68
2019-05-25T01:10:47.185Z,59.48
2019-05-25T01:11:47.167Z,59.99
2019-05-25T01:12:47.160Z,60.08
2019-05-25T01:13:47.171Z,58.67
2019-05-25T01:14:47.141Z,58.87
2019-05-25T01:15:47.118Z,58.76
2019-05-25T01:16:47.129Z,59.07
2019-05-25T01:17:47.099Z,58.97
2019-05-25T01:18:47.580Z,59.78
2019-05-25T01:19:47.110Z,59.78
2019-05-25T01:20:47.069Z,59.48
2019-05-25T01:21:47.108Z,59.88
2019-05-25T01:22:47.059Z,60.28
2019-05-25T01:23:47.059Z,60.49
2019-05-25T01:24:47.048Z,60.89
2019-05-25T01:25:47.009Z,60.59
2019-05-25T01:26:47.054Z,61.00
2019-05-25T01:27:46.989Z,61.10
2019-05-25T01:28:47.019Z,61.10
2019-05-25T01:29:46.971Z,61.13
2019-05-25T01:30:46.961Z,61.43
2019-05-25T01:31:46.999Z,61.74
2019-05-25T01:32:46.931Z,62.14
2019-05-25T01:33:46.929Z,62.04
2019-05-25T01:34:47.470Z,62.04
2019-05-25T01:35:46.906Z,61.83
2019-05-25T01:36:46.947Z,61.74
2019-05-25T01:37:48.632Z,62.14
2019-05-25T01:38:46.912Z,61.94
2019-05-25T01:39:46.850Z,61.83
2019-05-25T01:40:46.849Z,61.74
2019-05-25T01:41:46.865Z,61.97
2019-05-25T01:42:46.823Z,61.87
2019-05-25T01:43:46.811Z,62.27
2019-05-25T01:44:46.845Z,61.97
2019-05-25T01:45:46.790Z,61.36
2019-05-25T01:46:46.810Z,61.46
2019-05-25T01:47:46.771Z,61.56
2019-05-25T01:48:46.762Z,61.87
2019-05-25T01:49:46.743Z,61.97
2019-05-25T01:50:46.734Z,61.87
2019-05-25T01:51:46.779Z,62.17
2019-05-25T01:52:46.722Z,62.37
2019-05-25T01:53:46.703Z,62.51
2019-05-25T01:54:58.832Z,62.30
2019-05-25T01:55:47.674Z,62.60
2019-05-25T01:56:46.691Z,63.21
2019-05-25T01:57:46.682Z,63.42
2019-05-25T01:58:46.644Z,63.32
2019-05-25T01:59:46.644Z,62.91
2019-05-25T02:00:46.626Z,63.01
2019-05-25T02:01:46.612Z,62.81
2019-05-25T02:02:46.623Z,63.01
2019-05-25T02:03:46.593Z,63.01
2019-05-25T02:04:46.610Z,62.91
2019-05-25T02:05:46.573Z,62.81
2019-05-25T02:06:46.566Z,63.04
2019-05-25T02:07:46.551Z,63.34
2019-05-25T02:08:46.530Z,63.14
2019-05-25T02:09:46.551Z,63.85
2019-05-25T02:10:46.513Z,63.65
2019-05-25T02:11:46.504Z,63.42
2019-05-25T02:12:46.492Z,63.42
2019-05-25T02:13:46.482Z,63.42
2019-05-25T02:14:46.493Z,62.81
2019-05-25T02:15:46.459Z,62.91
2019-05-25T02:16:46.453Z,63.32
2019-05-25T02:17:46.461Z,63.32
2019-05-25T02:18:46.439Z,63.52
2019-05-25T02:19:46.415Z,63.42
2019-05-25T02:20:46.420Z,63.62
2019-05-25T02:21:46.393Z,63.01
2019-05-25T02:22:46.405Z,62.91
2019-05-25T02:23:46.381Z,63.42
2019-05-25T02:24:46.363Z,63.32
2019-05-25T02:25:46.392Z,63.11
2019-05-25T02:26:46.391Z,62.91
2019-05-25T02:27:46.402Z,62.91
2019-05-25T02:28:46.322Z,62.91
2019-05-25T02:29:46.316Z,63.21
2019-05-25T02:30:46.314Z,63.21
2019-05-25T02:31:46.286Z,63.11
2019-05-25T02:32:46.303Z,63.62
2019-05-25T02:33:46.303Z,63.21
2019-05-25T02:34:46.257Z,63.42
2019-05-25T02:35:46.237Z,63.52
2019-05-25T02:36:46.874Z,63.52
2019-05-25T02:37:46.322Z,63.32
2019-05-25T02:38:46.868Z,63.42
2019-05-25T02:39:46.214Z,64.64
2019-05-25T02:40:46.237Z,64.03
2019-05-25T02:41:46.173Z,63.92
2019-05-25T02:42:46.206Z,63.92
2019-05-25T02:43:46.179Z,63.72
2019-05-25T02:44:46.162Z,63.82
2019-05-25T02:45:46.131Z,63.62
2019-05-25T02:46:46.199Z,63.72
2019-05-25T02:47:46.166Z,63.72
2019-05-25T02:48:46.151Z,63.72
2019-05-25T02:49:46.146Z,63.32
2019-05-25T02:50:46.151Z,63.32
2019-05-25T02:51:46.057Z,63.32
2019-05-25T02:52:46.092Z,63.62
2019-05-25T02:53:46.071Z,63.32
2019-05-25T02:54:46.038Z,63.42
2019-05-25T02:55:46.020Z,63.72
2019-05-25T02:56:46.019Z,63.72
2019-05-25T02:57:45.998Z,63.92
2019-05-25T02:58:46.005Z,63.85
2019-05-25T02:59:45.978Z,63.75
2019-05-25T03:00:45.995Z,64.06
2019-05-25T03:01:45.957Z,63.75
2019-05-25T03:02:47.044Z,63.95
2019-05-25T03:03:46.695Z,63.75
2019-05-25T03:04:45.957Z,63.95
2019-05-25T03:05:46.009Z,63.65
2019-05-25T03:06:45.912Z,63.95
2019-05-25T03:07:45.894Z,64.06
2019-05-25T03:08:45.875Z,63.75
2019-05-25T03:09:45.881Z,63.75
2019-05-25T03:10:45.911Z,64.15
2019-05-25T03:11:45.851Z,64.15
2019-05-25T03:12:45.858Z,63.95
2019-05-25T03:13:45.838Z,63.95
2019-05-25T03:14:45.808Z,64.46
2019-05-25T03:15:45.856Z,64.26
2019-05-25T03:16:45.814Z,64.67
2019-05-25T03:17:45.816Z,64.46
2019-05-25T03:18:45.794Z,64.56
2019-05-25T03:19:45.766Z,64.36
2019-05-25T03:20:45.784Z,64.26
2019-05-25T03:21:45.736Z,64.76
2019-05-25T03:22:45.785Z,64.67
2019-05-25T03:23:45.711Z,64.76
2019-05-25T03:24:45.708Z,64.76
2019-05-25T03:25:49.483Z,64.76
2019-05-25T03:26:45.708Z,64.97
2019-05-25T03:27:45.762Z,64.76
2019-05-25T03:28:45.657Z,64.87
2019-05-25T03:29:45.718Z,64.97
2019-05-25T03:30:45.637Z,65.07
2019-05-25T03:31:45.636Z,65.17
2019-05-25T03:32:45.628Z,65.07
2019-05-25T03:33:45.625Z,65.17
2019-05-25T03:34:45.659Z,65.17
2019-05-25T03:35:45.585Z,65.37
2019-05-25T03:36:45.576Z,65.27
2019-05-25T03:37:45.633Z,65.27
2019-05-25T03:38:45.546Z,65.10
2019-05-25T03:39:45.560Z,65.00
2019-05-25T03:40:45.558Z,65.30
2019-05-25T03:41:45.523Z,65.41
2019-05-25T03:42:45.537Z,65.61
2019-05-25T03:43:45.502Z,66.22
2019-05-25T03:44:45.488Z,66.02
2019-05-25T03:45:46.379Z,65.51
2019-05-25T03:46:45.486Z,65.30
2019-05-25T03:47:45.533Z,65.51
2019-05-25T03:48:45.442Z,66.12
2019-05-25T03:49:45.426Z,65.81
2019-05-25T03:50:45.438Z,65.84
2019-05-25T03:51:45.408Z,66.55
2019-05-25T03:52:45.389Z,67.36
2019-05-25T03:53:45.388Z,67.16
2019-05-25T03:54:45.411Z,67.06
2019-05-25T03:55:45.402Z,66.76
2019-05-25T03:56:45.348Z,66.86
2019-05-25T03:57:45.340Z,66.42
2019-05-25T03:58:45.351Z,66.12
2019-05-25T03:59:45.321Z,66.42
2019-05-25T04:00:45.341Z,66.93
2019-05-25T04:01:45.300Z,66.42
2019-05-25T04:02:45.311Z,66.42
2019-05-25T04:03:45.278Z,66.32
2019-05-25T04:04:45.332Z,66.22
2019-05-25T04:05:45.272Z,66.22
2019-05-25T04:06:45.351Z,66.22
2019-05-25T04:07:45.235Z,66.15
2019-05-25T04:08:45.221Z,66.46
2019-05-25T04:09:45.270Z,67.06
2019-05-25T04:10:45.210Z,67.36
2019-05-25T04:11:45.259Z,66.96
2019-05-25T04:12:45.210Z,66.86
2019-05-25T04:13:45.201Z,66.76
2019-05-25T04:14:45.237Z,66.66
2019-05-25T04:15:45.185Z,66.86
2019-05-25T04:16:45.261Z,66.96
2019-05-25T04:17:45.182Z,66.96
2019-05-25T04:18:45.140Z,67.06
2019-05-25T04:19:45.091Z,66.86
2019-05-25T04:20:45.086Z,67.06
2019-05-25T04:21:45.102Z,67.27
2019-05-25T04:22:45.061Z,67.36
2019-05-25T04:23:45.052Z,68.18
2019-05-25T04:24:45.072Z,67.97
2019-05-25T04:25:45.041Z,67.44
2019-05-25T04:26:45.057Z,66.83
2019-05-25T04:27:45.013Z,67.03
2019-05-25T04:28:44.995Z,66.83
2019-05-25T04:29:44.985Z,67.13
2019-05-25T04:30:44.971Z,67.03
2019-05-25T04:31:45.013Z,66.72
2019-05-25T04:32:44.958Z,67.64
2019-05-25T04:33:44.943Z,67.13
2019-05-25T04:34:44.931Z,67.13
2019-05-25T04:35:44.953Z,67.03
2019-05-25T04:36:44.911Z,67.13
2019-05-25T04:37:44.895Z,66.93
2019-05-25T04:38:44.911Z,66.83
2019-05-25T04:39:44.903Z,66.39
2019-05-25T04:40:44.897Z,66.39
2019-05-25T04:41:44.852Z,66.19
2019-05-25T04:42:44.852Z,66.19
2019-05-25T04:43:44.850Z,66.49
2019-05-25T04:44:44.841Z,66.39
2019-05-25T04:45:44.833Z,65.78
2019-05-25T04:46:44.802Z,65.88
2019-05-25T04:47:44.785Z,65.88
2019-05-25T04:48:44.782Z,65.68
2019-05-25T04:49:44.795Z,65.68
2019-05-25T04:50:44.763Z,65.45
2019-05-25T04:51:44.753Z,65.34
2019-05-25T04:52:44.765Z,65.45
2019-05-25T04:53:44.720Z,65.34
2019-05-25T04:54:44.750Z,65.34
2019-05-25T04:55:44.704Z,65.65
2019-05-25T04:56:44.696Z,65.34
2019-05-25T04:57:44.675Z,66.16
2019-05-25T04:58:44.666Z,65.34
2019-05-25T04:59:44.680Z,64.91
2019-05-25T05:00:44.645Z,64.91
2019-05-25T05:01:44.638Z,64.20
2019-05-25T05:02:44.624Z,63.56
2019-05-25T05:03:44.646Z,63.66
2019-05-25T05:04:44.601Z,64.07
2019-05-25T05:05:44.583Z,63.56
2019-05-25T05:06:44.609Z,63.26
2019-05-25T05:07:44.586Z,62.72
2019-05-25T05:08:44.595Z,62.82
2019-05-25T05:09:44.542Z,63.02
2019-05-25T05:10:44.614Z,62.62
2019-05-25T05:11:44.523Z,62.18
2019-05-25T05:12:44.520Z,61.88
2019-05-25T05:13:44.526Z,62.08
2019-05-25T05:14:44.494Z,62.49
2019-05-25T05:15:44.504Z,61.98
2019-05-25T05:16:44.464Z,61.88
2019-05-25T05:17:44.453Z,62.26
2019-05-25T05:18:44.445Z,62.05
2019-05-25T05:19:44.447Z,61.85
2019-05-25T05:20:44.472Z,61.55
2019-05-25T05:21:44.413Z,60.94
2019-05-25T05:22:44.405Z,61.24
2019-05-25T05:23:44.405Z,61.41
2019-05-25T05:24:44.382Z,61.41
2019-05-25T05:25:44.397Z,61.21
2019-05-25T05:26:55.425Z,61.32
2019-05-25T05:27:45.348Z,60.98
2019-05-25T05:28:44.379Z,60.88
2019-05-25T05:29:44.329Z,60.58
2019-05-25T05:30:44.408Z,60.17
2019-05-25T05:31:44.303Z,60.14
2019-05-25T05:32:44.293Z,59.94
2019-05-25T05:33:44.363Z,59.64
2019-05-25T05:34:44.264Z,59.64
2019-05-25T05:35:44.294Z,58.93
2019-05-25T05:36:44.274Z,59.74
2019-05-25T05:37:44.236Z,59.94
2019-05-25T05:38:44.232Z,59.81
2019-05-25T05:39:44.215Z,59.31
2019-05-25T05:40:44.252Z,58.60
2019-05-25T05:41:44.201Z,58.37
2019-05-25T05:42:44.182Z,58.37
2019-05-25T05:43:44.166Z,58.37
2019-05-25T05:44:44.178Z,57.97
2019-05-25T05:45:44.421Z,58.07
2019-05-25T05:46:44.135Z,58.67
2019-05-25T05:47:44.136Z,59.35
2019-05-25T05:48:44.663Z,58.65
2019-05-25T05:49:44.148Z,57.61
2019-05-25T05:50:44.118Z,56.68
2019-05-25T05:51:44.095Z,55.74
2019-05-25T05:52:44.096Z,56.04
2019-05-25T05:53:44.068Z,55.71
2019-05-25T05:54:44.048Z,55.49
2019-05-25T05:55:44.036Z,54.73
2019-05-25T05:56:44.027Z,54.00
2019-05-25T05:57:44.045Z,52.47
2019-05-25T05:58:44.009Z,51.76
2019-05-25T05:59:44.005Z,50.93
2019-05-25T06:00:43.977Z,50.91
2019-05-25T06:01:43.976Z,50.26
2019-05-25T06:02:43.989Z,48.66
2019-05-25T06:03:43.946Z,48.13
2019-05-25T06:04:43.939Z,48.53
2019-05-25T06:05:43.929Z,48.41
2019-05-25T06:06:43.928Z,48.49
2019-05-25T06:07:43.944Z,47.46
2019-05-25T06:08:43.895Z,46.34
2019-05-25T06:09:43.893Z,46.44
2019-05-25T06:10:43.885Z,46.62
2019-05-25T06:11:43.879Z,46.19
2019-05-25T06:12:43.888Z,46.17
2019-05-25T06:13:43.905Z,45.27
2019-05-25T06:14:43.837Z,44.47
2019-05-25T06:15:43.819Z,44.27
2019-05-25T06:16:43.840Z,43.95
2019-05-25T06:17:43.799Z,43.45
2019-05-25T06:18:43.841Z,43.95
2019-05-25T06:19:43.774Z,43.45
2019-05-25T06:20:43.791Z,43.13
2019-05-25T06:21:43.820Z,43.11
2019-05-25T06:22:43.790Z,43.09
2019-05-25T06:23:43.729Z,42.47
2019-05-25T06:24:43.804Z,43.71
2019-05-25T06:25:43.710Z,44.03
2019-05-25T06:26:43.697Z,44.23
2019-05-25T06:27:44.431Z,44.23
2019-05-25T06:28:43.680Z,43.71
2019-05-25T06:29:43.669Z,42.89
2019-05-25T06:30:43.680Z,42.97
2019-05-25T06:31:43.640Z,42.35
2019-05-25T06:32:43.640Z,41.53
2019-05-25T06:33:43.628Z,41.22
2019-05-25T06:34:43.660Z,40.70
2019-05-25T06:35:43.602Z,41.08
2019-05-25T06:36:43.593Z,40.48
2019-05-25T06:37:43.590Z,40.16
2019-05-25T06:38:43.574Z,40.16
2019-05-25T06:39:43.583Z,40.98
2019-05-25T06:40:43.544Z,40.78
2019-05-25T06:41:43.560Z,39.89
2019-05-25T06:42:43.523Z,39.69
2019-05-25T06:43:43.512Z,40.26
2019-05-25T06:44:43.536Z,39.76
2019-05-25T06:45:43.494Z,39.05
2019-05-25T06:46:43.514Z,39.67
2019-05-25T06:47:43.475Z,41.17
2019-05-25T06:48:43.455Z,41.91
2019-05-25T06:49:43.446Z,41.83
2019-05-25T06:50:43.441Z,42.33
2019-05-25T06:51:43.444Z,42.55
2019-05-25T06:52:43.441Z,43.31
2019-05-25T06:53:43.404Z,43.73
2019-05-25T06:54:43.452Z,43.31
2019-05-25T06:55:43.408Z,43.51
2019-05-25T06:56:43.418Z,43.39
2019-05-25T06:57:44.044Z,41.88
2019-05-25T06:58:43.375Z,42.05
2019-05-25T06:59:43.343Z,41.46
2019-05-25T07:00:43.340Z,42.15
2019-05-25T07:01:43.377Z,42.97
2019-05-25T07:02:43.414Z,43.47
2019-05-25T07:03:43.324Z,42.95
2019-05-25T07:04:44.093Z,43.35
2019-05-25T07:05:43.306Z,42.45
2019-05-25T07:06:43.272Z,41.85
2019-05-25T07:07:43.260Z,42.35
2019-05-25T07:08:43.246Z,42.35
2019-05-25T07:09:43.228Z,42.85
2019-05-25T07:10:43.248Z,42.87
2019-05-25T07:11:43.307Z,42.77
2019-05-25T07:12:43.211Z,43.25
2019-05-25T07:13:43.229Z,42.35
2019-05-25T07:14:43.184Z,42.45
2019-05-25T07:15:43.169Z,43.15
2019-05-25T07:16:43.158Z,43.15
2019-05-25T07:17:43.205Z,43.05
2019-05-25T07:18:43.155Z,42.87
2019-05-25T07:19:43.129Z,42.27
2019-05-25T07:20:43.151Z,43.15
2019-05-25T07:21:43.107Z,43.65
2019-05-25T07:22:43.120Z,43.35
2019-05-25T07:23:43.079Z,42.15
2019-05-25T07:24:43.080Z,42.85
2019-05-25T07:25:43.111Z,43.15
2019-05-25T07:26:43.050Z,43.03
2019-05-25T07:27:58.276Z,42.63
2019-05-25T07:28:44.039Z,42.51
2019-05-25T07:29:43.021Z,43.08
2019-05-25T07:30:46.069Z,42.19
2019-05-25T07:31:43.011Z,42.57
2019-05-25T07:32:42.998Z,41.97
2019-05-25T07:33:42.981Z,42.07
2019-05-25T07:34:42.995Z,41.67
2019-05-25T07:35:42.958Z,41.08
2019-05-25T07:36:42.972Z,41.47
2019-05-25T07:37:42.933Z,41.87
2019-05-25T07:38:42.933Z,42.17
2019-05-25T07:39:42.963Z,42.67
2019-05-25T07:40:42.926Z,42.27
2019-05-25T07:41:43.003Z,43.16
2019-05-25T07:42:42.883Z,42.49
2019-05-25T07:43:42.881Z,42.19
2019-05-25T07:44:43.706Z,41.79
2019-05-25T07:45:42.885Z,43.11
2019-05-25T07:46:42.874Z,44.31
2019-05-25T07:47:42.832Z,43.11
2019-05-25T07:48:42.926Z,43.30
2019-05-25T07:49:42.805Z,43.88
2019-05-25T07:50:42.795Z,43.27
2019-05-25T07:51:42.802Z,43.46
2019-05-25T07:52:42.798Z,42.69
2019-05-25T07:53:42.766Z,42.19
2019-05-25T07:54:42.753Z,42.57
2019-05-25T07:55:42.756Z,42.67
2019-05-25T07:56:42.820Z,41.97
2019-05-25T07:57:42.724Z,42.25
2019-05-25T07:58:42.730Z,41.55
2019-05-25T07:59:42.712Z,41.55
2019-05-25T08:00:42.802Z,40.76
2019-05-25T08:01:42.745Z,40.66
2019-05-25T08:02:42.742Z,41.04
2019-05-25T08:03:42.783Z,41.14
2019-05-25T08:04:42.675Z,41.04
2019-05-25T08:05:42.635Z,40.64
2019-05-25T08:06:42.659Z,40.14
2019-05-25T08:07:42.679Z,40.52
2019-05-25T08:08:42.742Z,41.42
2019-05-25T08:09:42.619Z,41.12
2019-05-25T08:10:42.608Z,39.61
2019-05-25T08:11:42.581Z,40.11
2019-05-25T08:12:42.590Z,40.28
2019-05-25T08:13:42.827Z,40.07
2019-05-25T08:14:45.000Z,40.15
2019-05-25T08:15:42.622Z,38.96
2019-05-25T08:16:42.535Z,38.48
2019-05-25T08:17:42.646Z,38.28
2019-05-25T08:18:42.824Z,38.28
2019-05-25T08:19:43.366Z,37.96
2019-05-25T08:20:42.482Z,38.05
2019-05-25T08:21:42.757Z,38.15
2019-05-25T08:22:42.534Z,37.67
2019-05-25T08:23:42.454Z,38.24
2019-05-25T08:24:42.460Z,39.76
2019-05-25T08:25:42.446Z,41.30
2019-05-25T08:26:42.433Z,41.79
2019-05-25T08:27:42.436Z,41.87
2019-05-25T08:28:42.438Z,41.16
2019-05-25T08:29:42.384Z,41.52
2019-05-25T08:30:42.404Z,40.92
2019-05-25T08:31:42.367Z,41.89
2019-05-25T08:32:42.356Z,41.17
2019-05-25T08:33:42.371Z,39.59
2019-05-25T08:34:42.850Z,40.28
2019-05-25T08:35:42.358Z,39.03
2019-05-25T08:36:42.325Z,39.59
2019-05-25T08:37:42.361Z,41.30
2019-05-25T08:38:42.297Z,41.30
2019-05-25T08:39:42.277Z,41.38
2019-05-25T08:40:42.303Z,41.75
2019-05-25T08:41:45.295Z,42.63
2019-05-25T08:42:42.248Z,41.31
2019-05-25T08:43:42.242Z,40.82
2019-05-25T08:44:42.227Z,40.42
2019-05-25T08:45:42.268Z,39.41
2019-05-25T08:46:42.226Z,39.09
2019-05-25T08:47:42.188Z,37.39
2019-05-25T08:48:42.190Z,37.37
2019-05-25T08:49:42.167Z,37.87
2019-05-25T08:50:42.168Z,37.35
2019-05-25T08:51:42.191Z,37.57
2019-05-25T08:52:42.140Z,37.67
2019-05-25T08:53:42.462Z,38.26
2019-05-25T08:54:42.342Z,39.14
2019-05-25T08:55:42.119Z,39.34
2019-05-25T08:56:42.100Z,38.84
2019-05-25T08:57:42.109Z,38.94
2019-05-25T08:58:48.479Z,37.53
2019-05-25T08:59:43.069Z,38.23
2019-05-25T09:00:42.090Z,36.92
2019-05-25T09:01:42.080Z,36.92
2019-05-25T09:02:42.033Z,37.51
2019-05-25T09:03:42.019Z,36.01
2019-05-25T09:04:42.040Z,36.01
2019-05-25T09:05:42.058Z,35.11
2019-05-25T09:06:42.008Z,35.19
2019-05-25T09:07:42.025Z,34.69
2019-05-25T09:08:41.980Z,34.50
2019-05-25T09:09:42.055Z,34.00
2019-05-25T09:10:41.975Z,34.71
2019-05-25T09:11:42.755Z,35.61
2019-05-25T09:12:42.033Z,35.70
2019-05-25T09:13:42.015Z,38.94
2019-05-25T09:14:41.984Z,35.86
2019-05-25T09:15:41.959Z,35.27
2019-05-25T09:16:41.920Z,35.25
2019-05-25T09:17:41.924Z,36.25
2019-05-25T09:18:41.924Z,35.57
2019-05-25T09:19:41.904Z,37.13
2019-05-25T09:20:41.842Z,35.12
2019-05-25T09:21:41.849Z,34.41
2019-05-25T09:22:41.825Z,34.49
2019-05-25T09:23:41.836Z,35.17
2019-05-25T09:24:41.862Z,34.30
2019-05-25T09:25:41.798Z,33.62
2019-05-25T09:26:41.816Z,33.44
2019-05-25T09:27:41.804Z,35.61
2019-05-25T09:28:41.826Z,34.82
2019-05-25T09:29:41.779Z,32.34
2019-05-25T09:30:41.859Z,31.83
2019-05-25T09:31:41.925Z,34.10
2019-05-25T09:32:41.781Z,30.55
2019-05-25T09:33:41.752Z,32.03
2019-05-25T09:34:41.774Z,31.52
2019-05-25T09:35:41.718Z,30.86
2019-05-25T09:36:41.698Z,32.34
2019-05-25T09:37:41.695Z,32.23
2019-05-25T09:38:43.371Z,32.23
2019-05-25T09:39:41.643Z,31.35
2019-05-25T09:40:41.919Z,32.04
2019-05-25T09:41:42.110Z,31.85
2019-05-25T09:42:41.716Z,31.07
2019-05-25T09:43:41.629Z,31.78
2019-05-25T09:44:41.589Z,32.19
2019-05-25T09:45:41.578Z,33.00
2019-05-25T09:46:41.600Z,33.29
2019-05-25T09:47:41.592Z,33.59
2019-05-25T09:48:41.551Z,33.49
2019-05-25T09:49:41.542Z,34.18
2019-05-25T09:50:41.523Z,33.31
2019-05-25T09:51:41.545Z,33.94
2019-05-25T09:52:41.513Z,34.48
2019-05-25T09:53:41.533Z,36.38
2019-05-25T09:54:41.522Z,35.11
2019-05-25T09:55:41.561Z,36.60
2019-05-25T09:56:41.977Z,36.91
2019-05-25T09:57:42.025Z,36.02
2019-05-25T09:58:41.490Z,37.11
2019-05-25T09:59:41.480Z,37.70
2019-05-25T10:00:41.444Z,38.10
2019-05-25T10:01:41.473Z,37.30
2019-05-25T10:02:41.858Z,37.39
2019-05-25T10:03:41.412Z,37.19
2019-05-25T10:04:41.375Z,37.29
2019-05-25T10:05:41.373Z,37.59
2019-05-25T10:06:41.365Z,37.77
2019-05-25T10:07:41.376Z,37.57
2019-05-25T10:08:41.334Z,37.77
2019-05-25T10:09:41.394Z,37.87
2019-05-25T10:10:41.397Z,38.07
2019-05-25T10:11:41.330Z,37.17
2019-05-25T10:12:41.326Z,36.18
2019-05-25T10:13:41.318Z,36.90
2019-05-25T10:14:41.377Z,37.98
2019-05-25T10:15:41.325Z,38.28
2019-05-25T10:16:41.295Z,38.28
2019-05-25T10:17:41.277Z,37.90
2019-05-25T10:18:41.228Z,37.70
2019-05-25T10:19:41.329Z,37.30
2019-05-25T10:20:41.229Z,37.90
2019-05-25T10:21:41.258Z,38.00
2019-05-25T10:22:41.262Z,38.00
2019-05-25T10:23:41.202Z,37.92
2019-05-25T10:24:41.213Z,39.01
2019-05-25T10:25:41.168Z,40.01
2019-05-25T10:26:41.160Z,39.21
2019-05-25T10:27:41.245Z,38.42
2019-05-25T10:28:41.176Z,38.42
2019-05-25T10:29:41.177Z,39.21
2019-05-25T10:30:41.167Z,39.09
2019-05-25T10:31:41.109Z,38.20
2019-05-25T10:32:41.180Z,38.60
2019-05-25T10:33:41.075Z,38.40
2019-05-25T10:34:41.081Z,37.49
2019-05-25T10:35:41.054Z,38.88
2019-05-25T10:36:41.038Z,38.09
2019-05-25T10:37:41.032Z,38.50
2019-05-25T10:38:41.019Z,37.90
2019-05-25T10:39:41.040Z,38.40
2019-05-25T10:40:41.022Z,38.02
2019-05-25T10:41:40.985Z,38.81
2019-05-25T10:42:40.985Z,39.01
2019-05-25T10:43:40.983Z,39.41
2019-05-25T10:44:40.993Z,38.71
2019-05-25T10:45:40.951Z,40.01
2019-05-25T10:46:40.933Z,39.71
2019-05-25T10:47:40.921Z,39.00
2019-05-25T10:48:40.922Z,39.19
2019-05-25T10:49:40.974Z,39.98
2019-05-25T10:50:40.905Z,37.70
2019-05-25T10:51:40.897Z,38.20
2019-05-25T10:52:40.884Z,36.11
2019-05-25T10:53:40.866Z,36.51
2019-05-25T10:54:40.877Z,37.60
2019-05-25T10:55:40.859Z,37.51
2019-05-25T10:56:40.849Z,36.93
2019-05-25T10:57:40.814Z,37.62
2019-05-25T10:58:40.813Z,37.92
2019-05-25T10:59:52.411Z,37.32
2019-05-25T11:00:41.807Z,37.72
2019-05-25T11:01:40.779Z,37.92
2019-05-25T11:02:40.771Z,37.43
2019-05-25T11:03:40.776Z,37.52
2019-05-25T11:04:40.826Z,37.72
2019-05-25T11:05:40.789Z,37.82
2019-05-25T11:06:40.745Z,38.02
2019-05-25T11:07:40.715Z,38.81
2019-05-25T11:08:40.699Z,38.79
2019-05-25T11:09:40.688Z,37.51
2019-05-25T11:10:40.700Z,36.51
2019-05-25T11:11:40.670Z,36.79
2019-05-25T11:12:41.060Z,36.60
2019-05-25T11:13:40.648Z,33.83
2019-05-25T11:14:40.848Z,35.13
2019-05-25T11:15:40.668Z,36.04
2019-05-25T11:16:40.621Z,37.13
2019-05-25T11:17:40.624Z,36.63
2019-05-25T11:18:41.839Z,38.00
2019-05-25T11:19:40.610Z,37.81
2019-05-25T11:20:40.671Z,38.18
2019-05-25T11:21:40.575Z,37.19
2019-05-25T11:22:40.699Z,36.79
2019-05-25T11:23:40.622Z,37.11
2019-05-25T11:24:40.593Z,37.29
2019-05-25T11:25:40.532Z,36.00
2019-05-25T11:26:40.511Z,36.10
2019-05-25T11:27:40.492Z,37.69
2019-05-25T11:28:40.513Z,36.90
2019-05-25T11:29:40.513Z,35.60
2019-05-25T11:30:40.462Z,36.79
2019-05-25T11:31:40.452Z,37.19
2019-05-25T11:32:40.475Z,36.79
2019-05-25T11:33:40.435Z,36.99
2019-05-25T11:34:40.455Z,37.79
2019-05-25T11:35:40.405Z,35.50
2019-05-25T11:36:40.414Z,36.51
2019-05-25T11:37:40.413Z,37.01
2019-05-25T11:38:40.375Z,38.10
2019-05-25T11:39:40.395Z,38.12
2019-05-25T11:40:40.427Z,38.71
2019-05-25T11:41:40.374Z,38.20
2019-05-25T11:42:40.353Z,38.10
2019-05-25T11:43:40.334Z,36.99
2019-05-25T11:44:40.315Z,37.98
2019-05-25T11:45:40.356Z,38.78
2019-05-25T11:46:40.296Z,38.60
2019-05-25T11:47:40.315Z,38.40
2019-05-25T11:48:40.324Z,38.00
2019-05-25T11:49:40.274Z,36.20
2019-05-25T11:50:40.249Z,37.21
2019-05-25T11:51:40.245Z,36.90
2019-05-25T11:52:40.517Z,35.31
2019-05-25T11:53:40.219Z,35.11
2019-05-25T11:54:40.238Z,34.43
2019-05-25T11:55:40.228Z,35.62
2019-05-25T11:56:40.189Z,36.73
2019-05-25T11:57:40.211Z,37.13
2019-05-25T11:58:47.583Z,37.52
2019-05-25T11:59:41.190Z,37.52
2019-05-25T12:00:40.231Z,37.94
2019-05-25T12:01:40.180Z,36.65
2019-05-25T12:02:40.125Z,37.15
2019-05-25T12:03:40.128Z,38.04
2019-05-25T12:04:40.104Z,38.56
2019-05-25T12:05:40.102Z,38.18
2019-05-25T12:06:40.110Z,38.67
2019-05-25T12:07:43.863Z,39.29
2019-05-25T12:08:40.078Z,39.40
2019-05-25T12:09:40.062Z,39.72
2019-05-25T12:10:40.072Z,41.14
2019-05-25T12:11:40.072Z,42.13
2019-05-25T12:12:40.043Z,42.93
2019-05-25T12:13:40.042Z,42.73
2019-05-25T12:14:40.002Z,41.83
2019-05-25T12:15:39.995Z,42.63
2019-05-25T12:16:40.005Z,42.83
2019-05-25T12:17:40.002Z,41.44
2019-05-25T12:18:39.962Z,42.93
2019-05-25T12:19:39.947Z,42.51
2019-05-25T12:20:39.924Z,41.82
2019-05-25T12:21:39.924Z,42.81
2019-05-25T12:22:39.976Z,41.91
2019-05-25T12:23:39.904Z,41.91
2019-05-25T12:24:39.920Z,40.82
2019-05-25T12:25:39.917Z,40.72
2019-05-25T12:26:39.885Z,40.70
2019-05-25T12:27:39.918Z,39.72
2019-05-25T12:28:39.847Z,39.42
2019-05-25T12:29:39.836Z,40.24
2019-05-25T12:30:41.254Z,40.22
2019-05-25T12:31:39.817Z,40.72
2019-05-25T12:32:39.824Z,40.92
2019-05-25T12:33:39.820Z,41.22
2019-05-25T12:34:39.807Z,40.62
2019-05-25T12:35:39.808Z,41.31
2019-05-25T12:36:39.769Z,40.40
2019-05-25T12:37:39.778Z,41.20
2019-05-25T12:38:39.737Z,41.09
2019-05-25T12:39:39.940Z,41.69
2019-05-25T12:40:52.770Z,41.60
2019-05-25T12:41:40.760Z,41.30
2019-05-25T12:42:39.728Z,41.79
2019-05-25T12:43:39.687Z,41.20
2019-05-25T12:44:39.715Z,42.09
2019-05-25T12:45:42.123Z,41.30
2019-05-25T12:46:39.656Z,40.20
2019-05-25T12:47:39.713Z,40.70
2019-05-25T12:48:39.641Z,40.32
2019-05-25T12:49:50.123Z,41.12
2019-05-25T12:50:40.634Z,40.82
2019-05-25T12:51:39.591Z,40.92
2019-05-25T12:52:39.626Z,40.82